sensor_id;sensor_type;location;lat;lon;timestamp;P1;durP1;ratioP1;P2;durP2;ratioP2
22284;SDS011;11311;52.192;20.900;2022-11-10T00:00:13;72.05;;;45.88;;
22284;SDS011;11311;52.192;20.900;2022-11-10T00:03:03;77.18;;;44.70;;
22284;SDS011;11311;52.192;20.900;2022-11-10T00:05:50;93.27;;;50.20;;
22284;SDS011;11311;52.192;20.900;2022-11-10T00:08:37;81.45;;;50.03;;
22284;SDS011;11311;52.192;20.900;2022-11-10T00:11:24;85.18;;;50.47;;
22284;SDS011;11311;52.192;20.900;2022-11-10T00:14:11;83.85;;;52.40;;
22284;SDS011;11311;52.192;20.900;2022-11-10T00:17:15;77.97;;;49.85;;
22284;SDS011;11311;52.192;20.900;2022-11-10T00:20:04;75.15;;;43.50;;
22284;SDS011;11311;52.192;20.900;2022-11-10T00:22:53;82.28;;;42.22;;
22284;SDS011;11311;52.192;20.900;2022-11-10T00:25:40;77.50;;;42.92;;
22284;SDS011;11311;52.192;20.900;2022-11-10T00:28:28;71.53;;;40.10;;
22284;SDS011;11311;52.192;20.900;2022-11-10T00:31:16;73.40;;;43.92;;
22284;SDS011;11311;52.192;20.900;2022-11-10T00:34:03;70.32;;;40.70;;
22284;SDS011;11311;52.192;20.900;2022-11-10T00:36:51;71.72;;;45.40;;
22284;SDS011;11311;52.192;20.900;2022-11-10T00:39:38;80.60;;;46.47;;
22284;SDS011;11311;52.192;20.900;2022-11-10T00:42:25;78.03;;;46.80;;
22284;SDS011;11311;52.192;20.900;2022-11-10T00:45:12;75.65;;;48.83;;
22284;SDS011;11311;52.192;20.900;2022-11-10T00:47:59;76.85;;;45.88;;
22284;SDS011;11311;52.192;20.900;2022-11-10T00:50:46;78.40;;;47.45;;
22284;SDS011;11311;52.192;20.900;2022-11-10T00:53:34;75.28;;;48.03;;
22284;SDS011;11311;52.192;20.900;2022-11-10T00:56:21;75.28;;;44.38;;
22284;SDS011;11311;52.192;20.900;2022-11-10T00:59:08;79.35;;;47.75;;
22284;SDS011;11311;52.192;20.900;2022-11-10T01:01:55;69.88;;;45.45;;
22284;SDS011;11311;52.192;20.900;2022-11-10T01:04:42;77.65;;;41.15;;
22284;SDS011;11311;52.192;20.900;2022-11-10T01:07:29;73.00;;;45.28;;
22284;SDS011;11311;52.192;20.900;2022-11-10T01:10:18;78.20;;;45.08;;
22284;SDS011;11311;52.192;20.900;2022-11-10T01:13:05;74.07;;;46.22;;
22284;SDS011;11311;52.192;20.900;2022-11-10T01:15:52;68.57;;;41.30;;
22284;SDS011;11311;52.192;20.900;2022-11-10T01:18:40;74.45;;;44.42;;
22284;SDS011;11311;52.192;20.900;2022-11-10T01:21:28;71.30;;;42.28;;
22284;SDS011;11311;52.192;20.900;2022-11-10T01:24:17;66.57;;;38.47;;
22284;SDS011;11311;52.192;20.900;2022-11-10T01:27:07;69.30;;;45.77;;
22284;SDS011;11311;52.192;20.900;2022-11-10T01:29:54;76.28;;;42.42;;
22284;SDS011;11311;52.192;20.900;2022-11-10T01:32:41;77.32;;;47.33;;
22284;SDS011;11311;52.192;20.900;2022-11-10T01:35:29;73.85;;;43.25;;
22284;SDS011;11311;52.192;20.900;2022-11-10T01:38:16;78.57;;;45.42;;
22284;SDS011;11311;52.192;20.900;2022-11-10T01:41:04;78.32;;;49.75;;
22284;SDS011;11311;52.192;20.900;2022-11-10T01:47:00;70.40;;;41.05;;
22284;SDS011;11311;52.192;20.900;2022-11-10T01:49:47;70.43;;;45.13;;
22284;SDS011;11311;52.192;20.900;2022-11-10T01:52:35;68.50;;;44.95;;
22284;SDS011;11311;52.192;20.900;2022-11-10T01:55:23;73.80;;;45.47;;
22284;SDS011;11311;52.192;20.900;2022-11-10T01:58:11;66.85;;;43.28;;
22284;SDS011;11311;52.192;20.900;2022-11-10T02:01:01;72.82;;;45.58;;
22284;SDS011;11311;52.192;20.900;2022-11-10T02:03:50;71.78;;;46.03;;
22284;SDS011;11311;52.192;20.900;2022-11-10T02:06:40;91.40;;;43.15;;
22284;SDS011;11311;52.192;20.900;2022-11-10T02:09:29;77.57;;;44.45;;
22284;SDS011;11311;52.192;20.900;2022-11-10T02:12:17;63.88;;;40.10;;
22284;SDS011;11311;52.192;20.900;2022-11-10T02:15:21;71.63;;;45.05;;
22284;SDS011;11311;52.192;20.900;2022-11-10T02:18:11;61.38;;;39.22;;
22284;SDS011;11311;52.192;20.900;2022-11-10T02:21:00;64.60;;;41.35;;
22284;SDS011;11311;52.192;20.900;2022-11-10T02:23:49;76.00;;;45.53;;
22284;SDS011;11311;52.192;20.900;2022-11-10T02:26:38;69.03;;;44.15;;
22284;SDS011;11311;52.192;20.900;2022-11-10T02:29:27;71.32;;;43.97;;
22284;SDS011;11311;52.192;20.900;2022-11-10T02:32:14;68.60;;;43.70;;
22284;SDS011;11311;52.192;20.900;2022-11-10T02:35:01;66.88;;;43.25;;
22284;SDS011;11311;52.192;20.900;2022-11-10T02:37:50;64.50;;;44.85;;
22284;SDS011;11311;52.192;20.900;2022-11-10T02:40:38;70.70;;;44.78;;
22284;SDS011;11311;52.192;20.900;2022-11-10T02:43:25;70.78;;;45.83;;
22284;SDS011;11311;52.192;20.900;2022-11-10T02:46:13;61.28;;;40.97;;
22284;SDS011;11311;52.192;20.900;2022-11-10T02:49:00;69.65;;;43.55;;
22284;SDS011;11311;52.192;20.900;2022-11-10T02:51:48;69.45;;;42.42;;
22284;SDS011;11311;52.192;20.900;2022-11-10T02:54:36;70.68;;;44.15;;
22284;SDS011;11311;52.192;20.900;2022-11-10T02:57:24;68.72;;;44.17;;
22284;SDS011;11311;52.192;20.900;2022-11-10T03:00:11;64.53;;;42.40;;
22284;SDS011;11311;52.192;20.900;2022-11-10T03:02:59;65.22;;;42.20;;
22284;SDS011;11311;52.192;20.900;2022-11-10T03:05:47;67.93;;;42.47;;
22284;SDS011;11311;52.192;20.900;2022-11-10T03:08:34;64.20;;;42.58;;
22284;SDS011;11311;52.192;20.900;2022-11-10T03:11:25;68.25;;;42.58;;
22284;SDS011;11311;52.192;20.900;2022-11-10T03:14:16;65.03;;;42.35;;
22284;SDS011;11311;52.192;20.900;2022-11-10T03:17:03;64.35;;;42.95;;
22284;SDS011;11311;52.192;20.900;2022-11-10T03:19:50;66.85;;;43.65;;
22284;SDS011;11311;52.192;20.900;2022-11-10T03:22:38;63.42;;;42.88;;
22284;SDS011;11311;52.192;20.900;2022-11-10T03:25:25;60.33;;;40.20;;
22284;SDS011;11311;52.192;20.900;2022-11-10T03:28:14;62.42;;;41.95;;
22284;SDS011;11311;52.192;20.900;2022-11-10T03:31:01;65.72;;;42.28;;
22284;SDS011;11311;52.192;20.900;2022-11-10T03:33:48;58.95;;;42.58;;
22284;SDS011;11311;52.192;20.900;2022-11-10T03:36:35;62.80;;;44.03;;
22284;SDS011;11311;52.192;20.900;2022-11-10T03:39:23;64.10;;;43.30;;
22284;SDS011;11311;52.192;20.900;2022-11-10T03:42:10;62.63;;;42.28;;
22284;SDS011;11311;52.192;20.900;2022-11-10T03:44:59;69.65;;;43.60;;
22284;SDS011;11311;52.192;20.900;2022-11-10T03:47:46;68.47;;;43.10;;
22284;SDS011;11311;52.192;20.900;2022-11-10T03:50:34;57.47;;;40.83;;
22284;SDS011;11311;52.192;20.900;2022-11-10T03:53:22;66.68;;;43.45;;
22284;SDS011;11311;52.192;20.900;2022-11-10T03:56:09;61.15;;;41.78;;
22284;SDS011;11311;52.192;20.900;2022-11-10T03:58:57;62.70;;;39.85;;
22284;SDS011;11311;52.192;20.900;2022-11-10T04:01:46;61.75;;;42.50;;
22284;SDS011;11311;52.192;20.900;2022-11-10T04:04:34;62.13;;;42.60;;
22284;SDS011;11311;52.192;20.900;2022-11-10T04:07:39;62.88;;;41.75;;
22284;SDS011;11311;52.192;20.900;2022-11-10T04:10:44;61.35;;;41.00;;
22284;SDS011;11311;52.192;20.900;2022-11-10T04:13:32;73.53;;;44.47;;
22284;SDS011;11311;52.192;20.900;2022-11-10T04:16:37;67.22;;;44.53;;
22284;SDS011;11311;52.192;20.900;2022-11-10T04:19:26;71.07;;;43.05;;
22284;SDS011;11311;52.192;20.900;2022-11-10T04:22:13;70.40;;;42.55;;
22284;SDS011;11311;52.192;20.900;2022-11-10T04:25:20;66.13;;;44.13;;
22284;SDS011;11311;52.192;20.900;2022-11-10T04:28:07;67.28;;;45.92;;
22284;SDS011;11311;52.192;20.900;2022-11-10T04:30:54;65.22;;;42.90;;
22284;SDS011;11311;52.192;20.900;2022-11-10T04:33:42;68.88;;;44.22;;
22284;SDS011;11311;52.192;20.900;2022-11-10T04:36:32;67.68;;;41.88;;
22284;SDS011;11311;52.192;20.900;2022-11-10T04:39:20;64.72;;;42.35;;
22284;SDS011;11311;52.192;20.900;2022-11-10T04:42:07;71.30;;;42.30;;
22284;SDS011;11311;52.192;20.900;2022-11-10T04:44:54;66.15;;;42.15;;
22284;SDS011;11311;52.192;20.900;2022-11-10T04:47:41;65.25;;;42.30;;
22284;SDS011;11311;52.192;20.900;2022-11-10T04:50:28;69.10;;;43.08;;
22284;SDS011;11311;52.192;20.900;2022-11-10T04:53:17;68.10;;;41.65;;
22284;SDS011;11311;52.192;20.900;2022-11-10T04:56:05;67.95;;;41.20;;
22284;SDS011;11311;52.192;20.900;2022-11-10T04:58:52;71.95;;;43.03;;
22284;SDS011;11311;52.192;20.900;2022-11-10T05:01:40;66.55;;;42.58;;
22284;SDS011;11311;52.192;20.900;2022-11-10T05:04:28;72.95;;;41.17;;
22284;SDS011;11311;52.192;20.900;2022-11-10T05:07:15;68.20;;;42.38;;
22284;SDS011;11311;52.192;20.900;2022-11-10T05:10:04;69.88;;;42.30;;
22284;SDS011;11311;52.192;20.900;2022-11-10T05:12:52;77.53;;;43.40;;
22284;SDS011;11311;52.192;20.900;2022-11-10T05:15:40;73.53;;;44.97;;
22284;SDS011;11311;52.192;20.900;2022-11-10T05:18:27;73.47;;;45.90;;
22284;SDS011;11311;52.192;20.900;2022-11-10T05:21:14;76.20;;;45.65;;
22284;SDS011;11311;52.192;20.900;2022-11-10T05:24:01;77.60;;;47.05;;
22284;SDS011;11311;52.192;20.900;2022-11-10T05:26:50;73.13;;;43.63;;
22284;SDS011;11311;52.192;20.900;2022-11-10T05:29:37;70.47;;;44.70;;
22284;SDS011;11311;52.192;20.900;2022-11-10T05:32:25;73.53;;;43.92;;
22284;SDS011;11311;52.192;20.900;2022-11-10T05:35:12;74.85;;;46.40;;
22284;SDS011;11311;52.192;20.900;2022-11-10T05:37:59;72.65;;;45.35;;
22284;SDS011;11311;52.192;20.900;2022-11-10T05:40:46;82.40;;;46.70;;
22284;SDS011;11311;52.192;20.900;2022-11-10T05:43:35;84.20;;;48.10;;
22284;SDS011;11311;52.192;20.900;2022-11-10T05:46:23;89.47;;;48.90;;
22284;SDS011;11311;52.192;20.900;2022-11-10T05:49:10;82.90;;;47.97;;
22284;SDS011;11311;52.192;20.900;2022-11-10T05:51:58;80.32;;;44.60;;
22284;SDS011;11311;52.192;20.900;2022-11-10T05:54:45;89.97;;;49.45;;
22284;SDS011;11311;52.192;20.900;2022-11-10T05:57:32;93.25;;;51.33;;
22284;SDS011;11311;52.192;20.900;2022-11-10T06:00:22;86.03;;;49.17;;
22284;SDS011;11311;52.192;20.900;2022-11-10T06:03:11;92.90;;;49.50;;
22284;SDS011;11311;52.192;20.900;2022-11-10T06:06:00;90.43;;;49.67;;
22284;SDS011;11311;52.192;20.900;2022-11-10T06:08:47;98.05;;;50.50;;
22284;SDS011;11311;52.192;20.900;2022-11-10T06:11:35;102.10;;;50.83;;
22284;SDS011;11311;52.192;20.900;2022-11-10T06:14:22;95.70;;;49.30;;
22284;SDS011;11311;52.192;20.900;2022-11-10T06:17:10;87.10;;;47.33;;
22284;SDS011;11311;52.192;20.900;2022-11-10T06:19:58;91.82;;;50.15;;
22284;SDS011;11311;52.192;20.900;2022-11-10T06:22:55;86.60;;;48.00;;
22284;SDS011;11311;52.192;20.900;2022-11-10T06:25:45;91.20;;;49.10;;
22284;SDS011;11311;52.192;20.900;2022-11-10T06:28:33;89.43;;;49.78;;
22284;SDS011;11311;52.192;20.900;2022-11-10T06:31:20;97.90;;;49.65;;
22284;SDS011;11311;52.192;20.900;2022-11-10T06:34:09;91.05;;;50.17;;
22284;SDS011;11311;52.192;20.900;2022-11-10T06:36:57;93.55;;;47.42;;
22284;SDS011;11311;52.192;20.900;2022-11-10T06:39:44;83.75;;;48.97;;
22284;SDS011;11311;52.192;20.900;2022-11-10T06:42:32;86.95;;;48.22;;
22284;SDS011;11311;52.192;20.900;2022-11-10T06:45:19;96.45;;;50.28;;
22284;SDS011;11311;52.192;20.900;2022-11-10T06:48:08;91.65;;;48.25;;
22284;SDS011;11311;52.192;20.900;2022-11-10T06:51:00;89.10;;;47.72;;
22284;SDS011;11311;52.192;20.900;2022-11-10T06:53:47;85.65;;;46.20;;
22284;SDS011;11311;52.192;20.900;2022-11-10T06:56:35;94.93;;;48.63;;
22284;SDS011;11311;52.192;20.900;2022-11-10T06:59:22;87.72;;;47.25;;
22284;SDS011;11311;52.192;20.900;2022-11-10T07:02:09;93.20;;;49.63;;
22284;SDS011;11311;52.192;20.900;2022-11-10T07:05:00;88.53;;;45.25;;
22284;SDS011;11311;52.192;20.900;2022-11-10T07:07:48;95.45;;;49.53;;
22284;SDS011;11311;52.192;20.900;2022-11-10T07:10:36;83.38;;;46.50;;
22284;SDS011;11311;52.192;20.900;2022-11-10T07:13:23;83.68;;;46.70;;
22284;SDS011;11311;52.192;20.900;2022-11-10T07:16:10;85.60;;;47.13;;
22284;SDS011;11311;52.192;20.900;2022-11-10T07:18:58;85.63;;;46.80;;
22284;SDS011;11311;52.192;20.900;2022-11-10T07:21:46;93.22;;;48.22;;
22284;SDS011;11311;52.192;20.900;2022-11-10T07:24:35;81.72;;;45.05;;
22284;SDS011;11311;52.192;20.900;2022-11-10T07:27:22;81.05;;;44.53;;
22284;SDS011;11311;52.192;20.900;2022-11-10T07:30:10;81.10;;;45.80;;
22284;SDS011;11311;52.192;20.900;2022-11-10T07:32:59;100.40;;;48.28;;
22284;SDS011;11311;52.192;20.900;2022-11-10T07:35:49;88.80;;;45.92;;
22284;SDS011;11311;52.192;20.900;2022-11-10T07:38:39;81.07;;;44.65;;
22284;SDS011;11311;52.192;20.900;2022-11-10T07:41:27;88.53;;;46.38;;
22284;SDS011;11311;52.192;20.900;2022-11-10T07:44:15;82.90;;;43.58;;
22284;SDS011;11311;52.192;20.900;2022-11-10T07:47:02;84.05;;;44.45;;
22284;SDS011;11311;52.192;20.900;2022-11-10T07:49:49;79.32;;;45.17;;
22284;SDS011;11311;52.192;20.900;2022-11-10T07:52:36;75.90;;;42.28;;
22284;SDS011;11311;52.192;20.900;2022-11-10T07:55:24;88.82;;;46.95;;
22284;SDS011;11311;52.192;20.900;2022-11-10T07:58:13;80.88;;;42.63;;
22284;SDS011;11311;52.192;20.900;2022-11-10T08:01:01;75.40;;;43.67;;
22284;SDS011;11311;52.192;20.900;2022-11-10T08:03:48;77.22;;;42.95;;
22284;SDS011;11311;52.192;20.900;2022-11-10T08:06:36;74.13;;;41.40;;
22284;SDS011;11311;52.192;20.900;2022-11-10T08:09:23;79.55;;;44.15;;
22284;SDS011;11311;52.192;20.900;2022-11-10T08:12:10;83.15;;;42.67;;
22284;SDS011;11311;52.192;20.900;2022-11-10T08:14:59;70.65;;;42.85;;
22284;SDS011;11311;52.192;20.900;2022-11-10T08:17:46;84.30;;;43.05;;
22284;SDS011;11311;52.192;20.900;2022-11-10T08:20:33;73.18;;;42.25;;
22284;SDS011;11311;52.192;20.900;2022-11-10T08:23:21;73.47;;;40.58;;
22284;SDS011;11311;52.192;20.900;2022-11-10T08:26:09;74.75;;;42.67;;
22284;SDS011;11311;52.192;20.900;2022-11-10T08:28:56;79.63;;;40.75;;
22284;SDS011;11311;52.192;20.900;2022-11-10T08:31:45;68.10;;;37.05;;
22284;SDS011;11311;52.192;20.900;2022-11-10T08:34:32;75.18;;;41.42;;
22284;SDS011;11311;52.192;20.900;2022-11-10T08:37:20;73.38;;;38.97;;
22284;SDS011;11311;52.192;20.900;2022-11-10T08:40:07;70.90;;;39.70;;
22284;SDS011;11311;52.192;20.900;2022-11-10T08:42:59;76.05;;;39.67;;
22284;SDS011;11311;52.192;20.900;2022-11-10T08:45:47;71.78;;;38.22;;
22284;SDS011;11311;52.192;20.900;2022-11-10T08:48:36;65.38;;;37.50;;
22284;SDS011;11311;52.192;20.900;2022-11-10T08:51:24;80.05;;;41.05;;
22284;SDS011;11311;52.192;20.900;2022-11-10T08:54:11;67.88;;;36.72;;
22284;SDS011;11311;52.192;20.900;2022-11-10T08:56:59;62.00;;;35.60;;
22284;SDS011;11311;52.192;20.900;2022-11-10T08:59:46;60.30;;;35.20;;
22284;SDS011;11311;52.192;20.900;2022-11-10T09:02:34;66.25;;;35.90;;
22284;SDS011;11311;52.192;20.900;2022-11-10T09:05:23;62.20;;;35.63;;
22284;SDS011;11311;52.192;20.900;2022-11-10T09:08:10;60.78;;;35.83;;
22284;SDS011;11311;52.192;20.900;2022-11-10T09:11:00;57.38;;;32.63;;
22284;SDS011;11311;52.192;20.900;2022-11-10T09:13:48;57.45;;;32.90;;
22284;SDS011;11311;52.192;20.900;2022-11-10T09:16:35;62.03;;;32.85;;
22284;SDS011;11311;52.192;20.900;2022-11-10T09:19:23;60.95;;;32.65;;
22284;SDS011;11311;52.192;20.900;2022-11-10T09:22:12;56.22;;;33.95;;
22284;SDS011;11311;52.192;20.900;2022-11-10T09:24:59;58.58;;;34.05;;
22284;SDS011;11311;52.192;20.900;2022-11-10T09:27:47;60.65;;;35.58;;
22284;SDS011;11311;52.192;20.900;2022-11-10T09:30:34;53.05;;;34.83;;
22284;SDS011;11311;52.192;20.900;2022-11-10T09:33:22;51.22;;;33.00;;
22284;SDS011;11311;52.192;20.900;2022-11-10T09:36:10;58.22;;;33.58;;
22284;SDS011;11311;52.192;20.900;2022-11-10T09:38:59;53.28;;;30.85;;
22284;SDS011;11311;52.192;20.900;2022-11-10T09:41:46;52.78;;;32.90;;
22284;SDS011;11311;52.192;20.900;2022-11-10T09:44:34;56.75;;;33.90;;
22284;SDS011;11311;52.192;20.900;2022-11-10T09:47:26;49.97;;;31.70;;
22284;SDS011;11311;52.192;20.900;2022-11-10T09:50:40;58.08;;;35.38;;
22284;SDS011;11311;52.192;20.900;2022-11-10T09:53:32;50.60;;;32.13;;
22284;SDS011;11311;52.192;20.900;2022-11-10T09:56:27;57.30;;;34.50;;
22284;SDS011;11311;52.192;20.900;2022-11-10T09:59:17;45.95;;;30.55;;
22284;SDS011;11311;52.192;20.900;2022-11-10T10:02:11;55.45;;;33.60;;
22284;SDS011;11311;52.192;20.900;2022-11-10T10:08:21;50.55;;;33.05;;
22284;SDS011;11311;52.192;20.900;2022-11-10T10:11:21;46.42;;;31.45;;
22284;SDS011;11311;52.192;20.900;2022-11-10T10:14:23;46.97;;;31.60;;
22284;SDS011;11311;52.192;20.900;2022-11-10T10:17:18;52.72;;;33.08;;
22284;SDS011;11311;52.192;20.900;2022-11-10T10:20:12;48.90;;;31.52;;
22284;SDS011;11311;52.192;20.900;2022-11-10T10:23:07;41.13;;;30.00;;
22284;SDS011;11311;52.192;20.900;2022-11-10T10:26:01;42.08;;;28.83;;
22284;SDS011;11311;52.192;20.900;2022-11-10T10:28:50;44.05;;;28.40;;
22284;SDS011;11311;52.192;20.900;2022-11-10T10:31:38;39.35;;;28.30;;
22284;SDS011;11311;52.192;20.900;2022-11-10T10:34:27;41.15;;;27.85;;
22284;SDS011;11311;52.192;20.900;2022-11-10T10:37:20;44.60;;;28.23;;
22284;SDS011;11311;52.192;20.900;2022-11-10T10:40:12;41.08;;;26.73;;
22284;SDS011;11311;52.192;20.900;2022-11-10T10:43:00;42.15;;;27.15;;
22284;SDS011;11311;52.192;20.900;2022-11-10T10:46:03;41.97;;;26.90;;
22284;SDS011;11311;52.192;20.900;2022-11-10T10:49:05;33.35;;;25.23;;
22284;SDS011;11311;52.192;20.900;2022-11-10T10:52:15;36.97;;;24.10;;
22284;SDS011;11311;52.192;20.900;2022-11-10T10:55:10;34.97;;;22.30;;
22284;SDS011;11311;52.192;20.900;2022-11-10T10:57:59;27.95;;;20.85;;
22284;SDS011;11311;52.192;20.900;2022-11-10T11:00:47;34.75;;;23.10;;
22284;SDS011;11311;52.192;20.900;2022-11-10T11:03:40;34.22;;;22.92;;
22284;SDS011;11311;52.192;20.900;2022-11-10T11:06:28;31.40;;;23.33;;
22284;SDS011;11311;52.192;20.900;2022-11-10T11:09:17;29.05;;;22.73;;
22284;SDS011;11311;52.192;20.900;2022-11-10T11:12:06;35.47;;;23.30;;
22284;SDS011;11311;52.192;20.900;2022-11-10T11:18:12;30.63;;;21.98;;
22284;SDS011;11311;52.192;20.900;2022-11-10T11:21:07;30.77;;;21.57;;
22284;SDS011;11311;52.192;20.900;2022-11-10T11:24:07;32.38;;;23.10;;
22284;SDS011;11311;52.192;20.900;2022-11-10T11:26:58;30.92;;;20.27;;
22284;SDS011;11311;52.192;20.900;2022-11-10T11:29:59;27.23;;;19.23;;
22284;SDS011;11311;52.192;20.900;2022-11-10T11:35:57;36.85;;;20.48;;
22284;SDS011;11311;52.192;20.900;2022-11-10T11:38:53;33.33;;;19.52;;
22284;SDS011;11311;52.192;20.900;2022-11-10T11:41:45;23.60;;;17.67;;
22284;SDS011;11311;52.192;20.900;2022-11-10T11:44:49;23.90;;;17.92;;
22284;SDS011;11311;52.192;20.900;2022-11-10T11:47:48;22.88;;;15.80;;
22284;SDS011;11311;52.192;20.900;2022-11-10T11:50:55;23.40;;;17.10;;
22284;SDS011;11311;52.192;20.900;2022-11-10T11:53:51;22.13;;;17.05;;
22284;SDS011;11311;52.192;20.900;2022-11-10T11:56:48;24.92;;;17.00;;
22284;SDS011;11311;52.192;20.900;2022-11-10T11:59:40;23.05;;;17.23;;
22284;SDS011;11311;52.192;20.900;2022-11-10T12:05:55;24.92;;;16.35;;
22284;SDS011;11311;52.192;20.900;2022-11-10T12:08:50;21.48;;;15.48;;
22284;SDS011;11311;52.192;20.900;2022-11-10T12:11:48;19.38;;;15.00;;
22284;SDS011;11311;52.192;20.900;2022-11-10T12:14:45;21.27;;;15.02;;
22284;SDS011;11311;52.192;20.900;2022-11-10T12:17:38;20.60;;;14.80;;
22284;SDS011;11311;52.192;20.900;2022-11-10T12:20:33;23.58;;;15.90;;
22284;SDS011;11311;52.192;20.900;2022-11-10T12:23:26;23.92;;;15.38;;
22284;SDS011;11311;52.192;20.900;2022-11-10T12:26:19;21.85;;;15.75;;
22284;SDS011;11311;52.192;20.900;2022-11-10T12:29:19;24.45;;;15.95;;
22284;SDS011;11311;52.192;20.900;2022-11-10T12:32:10;17.80;;;13.43;;
22284;SDS011;11311;52.192;20.900;2022-11-10T12:35:04;26.15;;;16.30;;
22284;SDS011;11311;52.192;20.900;2022-11-10T12:37:54;23.40;;;15.68;;
22284;SDS011;11311;52.192;20.900;2022-11-10T12:40:45;22.98;;;15.43;;
22284;SDS011;11311;52.192;20.900;2022-11-10T12:43:36;21.70;;;15.80;;
22284;SDS011;11311;52.192;20.900;2022-11-10T12:46:27;33.47;;;16.58;;
22284;SDS011;11311;52.192;20.900;2022-11-10T12:49:16;19.70;;;15.05;;
22284;SDS011;11311;52.192;20.900;2022-11-10T12:52:05;26.73;;;16.48;;
22284;SDS011;11311;52.192;20.900;2022-11-10T12:54:56;26.30;;;17.02;;
22284;SDS011;11311;52.192;20.900;2022-11-10T12:57:43;23.35;;;15.00;;
22284;SDS011;11311;52.192;20.900;2022-11-10T13:00:33;27.45;;;16.17;;
22284;SDS011;11311;52.192;20.900;2022-11-10T13:03:26;19.95;;;15.57;;
22284;SDS011;11311;52.192;20.900;2022-11-10T13:06:22;24.63;;;17.02;;
22284;SDS011;11311;52.192;20.900;2022-11-10T13:09:22;23.70;;;16.00;;
22284;SDS011;11311;52.192;20.900;2022-11-10T13:12:17;20.05;;;15.13;;
22284;SDS011;11311;52.192;20.900;2022-11-10T13:31:50;24.25;;;14.93;;
22284;SDS011;11311;52.192;20.900;2022-11-10T13:34:41;22.52;;;15.73;;
22284;SDS011;11311;52.192;20.900;2022-11-10T13:37:45;22.67;;;14.45;;
22284;SDS011;11311;52.192;20.900;2022-11-10T13:40:35;23.27;;;15.13;;
22284;SDS011;11311;52.192;20.900;2022-11-10T13:43:25;22.30;;;14.70;;
22284;SDS011;11311;52.192;20.900;2022-11-10T13:46:13;19.42;;;15.38;;
22284;SDS011;11311;52.192;20.900;2022-11-10T13:52:14;22.95;;;15.45;;
22284;SDS011;11311;52.192;20.900;2022-11-10T13:55:09;23.88;;;15.27;;
22284;SDS011;11311;52.192;20.900;2022-11-10T13:58:02;23.55;;;15.93;;
22284;SDS011;11311;52.192;20.900;2022-11-10T14:00:52;19.95;;;15.10;;
22284;SDS011;11311;52.192;20.900;2022-11-10T14:04:07;19.88;;;15.85;;
22284;SDS011;11311;52.192;20.900;2022-11-10T14:06:54;23.02;;;15.80;;
22284;SDS011;11311;52.192;20.900;2022-11-10T14:09:45;23.55;;;16.27;;
22284;SDS011;11311;52.192;20.900;2022-11-10T14:12:34;21.05;;;14.25;;
22284;SDS011;11311;52.192;20.900;2022-11-10T14:15:28;23.42;;;14.93;;
22284;SDS011;11311;52.192;20.900;2022-11-10T14:18:24;24.95;;;16.52;;
22284;SDS011;11311;52.192;20.900;2022-11-10T14:21:19;26.70;;;16.63;;
22284;SDS011;11311;52.192;20.900;2022-11-10T14:24:10;25.55;;;16.50;;
22284;SDS011;11311;52.192;20.900;2022-11-10T14:27:06;22.38;;;16.90;;
22284;SDS011;11311;52.192;20.900;2022-11-10T14:30:12;26.42;;;16.77;;
22284;SDS011;11311;52.192;20.900;2022-11-10T14:33:08;25.73;;;16.23;;
22284;SDS011;11311;52.192;20.900;2022-11-10T14:35:57;24.65;;;18.02;;
22284;SDS011;11311;52.192;20.900;2022-11-10T14:38:46;22.92;;;17.48;;
22284;SDS011;11311;52.192;20.900;2022-11-10T14:41:34;23.50;;;17.08;;
22284;SDS011;11311;52.192;20.900;2022-11-10T14:44:24;22.95;;;17.55;;
22284;SDS011;11311;52.192;20.900;2022-11-10T14:47:13;26.13;;;18.35;;
22284;SDS011;11311;52.192;20.900;2022-11-10T14:50:02;29.87;;;18.80;;
22284;SDS011;11311;52.192;20.900;2022-11-10T14:52:54;27.48;;;18.25;;
22284;SDS011;11311;52.192;20.900;2022-11-10T14:55:43;24.65;;;17.38;;
22284;SDS011;11311;52.192;20.900;2022-11-10T14:58:39;31.02;;;17.58;;
22284;SDS011;11311;52.192;20.900;2022-11-10T15:01:30;29.67;;;18.58;;
22284;SDS011;11311;52.192;20.900;2022-11-10T15:04:22;32.25;;;18.33;;
22284;SDS011;11311;52.192;20.900;2022-11-10T15:07:13;28.45;;;18.27;;
22284;SDS011;11311;52.192;20.900;2022-11-10T15:10:03;29.20;;;19.40;;
22284;SDS011;11311;52.192;20.900;2022-11-10T15:13:01;31.75;;;18.80;;
22284;SDS011;11311;52.192;20.900;2022-11-10T15:15:49;30.70;;;17.55;;
22284;SDS011;11311;52.192;20.900;2022-11-10T15:18:39;32.40;;;19.88;;
22284;SDS011;11311;52.192;20.900;2022-11-10T15:21:27;36.25;;;19.23;;
22284;SDS011;11311;52.192;20.900;2022-11-10T15:24:25;27.58;;;19.23;;
22284;SDS011;11311;52.192;20.900;2022-11-10T15:27:13;29.40;;;18.85;;
22284;SDS011;11311;52.192;20.900;2022-11-10T15:30:19;31.52;;;18.08;;
22284;SDS011;11311;52.192;20.900;2022-11-10T15:33:08;31.13;;;20.25;;
22284;SDS011;11311;52.192;20.900;2022-11-10T15:36:11;25.05;;;18.58;;
22284;SDS011;11311;52.192;20.900;2022-11-10T15:39:01;38.83;;;20.75;;
22284;SDS011;11311;52.192;20.900;2022-11-10T15:41:56;33.08;;;19.00;;
22284;SDS011;11311;52.192;20.900;2022-11-10T15:44:44;27.17;;;20.42;;
22284;SDS011;11311;52.192;20.900;2022-11-10T15:47:32;28.35;;;20.55;;
22284;SDS011;11311;52.192;20.900;2022-11-10T15:50:19;26.30;;;18.60;;
22284;SDS011;11311;52.192;20.900;2022-11-10T15:53:09;26.98;;;19.52;;
22284;SDS011;11311;52.192;20.900;2022-11-10T15:55:59;24.02;;;18.95;;
22284;SDS011;11311;52.192;20.900;2022-11-10T15:58:47;26.90;;;18.35;;
22284;SDS011;11311;52.192;20.900;2022-11-10T16:01:36;25.35;;;19.05;;
22284;SDS011;11311;52.192;20.900;2022-11-10T16:04:24;29.13;;;18.85;;
22284;SDS011;11311;52.192;20.900;2022-11-10T16:07:12;26.60;;;18.40;;
22284;SDS011;11311;52.192;20.900;2022-11-10T16:10:01;24.30;;;17.80;;
22284;SDS011;11311;52.192;20.900;2022-11-10T16:12:48;24.23;;;16.52;;
22284;SDS011;11311;52.192;20.900;2022-11-10T16:15:36;23.65;;;16.88;;
22284;SDS011;11311;52.192;20.900;2022-11-10T16:18:24;23.23;;;16.13;;
22284;SDS011;11311;52.192;20.900;2022-11-10T16:21:13;24.58;;;17.25;;
22284;SDS011;11311;52.192;20.900;2022-11-10T16:24:01;21.15;;;16.98;;
22284;SDS011;11311;52.192;20.900;2022-11-10T16:26:50;21.58;;;17.33;;
22284;SDS011;11311;52.192;20.900;2022-11-10T16:29:37;27.00;;;18.50;;
22284;SDS011;11311;52.192;20.900;2022-11-10T16:32:25;26.58;;;17.45;;
22284;SDS011;11311;52.192;20.900;2022-11-10T16:35:12;30.15;;;17.38;;
22284;SDS011;11311;52.192;20.900;2022-11-10T16:38:00;21.85;;;16.35;;
22284;SDS011;11311;52.192;20.900;2022-11-10T16:41:03;27.40;;;16.08;;
22284;SDS011;11311;52.192;20.900;2022-11-10T16:43:56;28.75;;;17.40;;
22284;SDS011;11311;52.192;20.900;2022-11-10T16:46:44;24.13;;;17.77;;
22284;SDS011;11311;52.192;20.900;2022-11-10T16:49:42;24.20;;;17.90;;
22284;SDS011;11311;52.192;20.900;2022-11-10T16:52:29;25.95;;;16.73;;
22284;SDS011;11311;52.192;20.900;2022-11-10T16:55:17;22.92;;;17.13;;